createdAt,value
2023-03-30T00:01:48.479Z,13.70
2023-03-30T00:04:51.506Z,13.70
2023-03-30T00:07:53.145Z,13.70
2023-03-30T00:11:07.915Z,13.80
2023-03-30T00:14:09.565Z,13.80
2023-03-30T00:17:11.370Z,13.80
2023-03-30T00:20:14.586Z,13.80
2023-03-30T00:23:16.551Z,13.80
2023-03-30T00:26:18.647Z,13.80
2023-03-30T00:29:20.269Z,13.80
2023-03-30T00:32:21.927Z,13.80
2023-03-30T00:35:26.371Z,13.90
2023-03-30T00:38:27.925Z,13.80
2023-03-30T00:41:29.480Z,13.80
2023-03-30T00:45:10.949Z,13.80
2023-03-30T00:48:32.422Z,13.80
2023-03-30T00:51:37.851Z,13.80
2023-03-30T00:54:40.049Z,13.70
2023-03-30T00:57:43.258Z,13.70
2023-03-30T01:00:48.851Z,13.60
2023-03-30T01:03:51.947Z,13.60
2023-03-30T01:06:55.215Z,13.50
2023-03-30T01:09:57.267Z,13.40
2023-03-30T01:12:59.034Z,13.40
2023-03-30T01:16:13.137Z,13.40
2023-03-30T01:19:36.035Z,13.40
2023-03-30T01:23:02.100Z,13.30
2023-03-30T01:26:32.806Z,13.30
2023-03-30T01:29:47.647Z,13.30
2023-03-30T01:33:27.176Z,13.30
2023-03-30T01:37:10.553Z,13.30
2023-03-30T01:40:21.008Z,13.30
2023-03-30T01:43:43.903Z,13.30
2023-03-30T01:46:50.808Z,13.30
2023-03-30T01:50:29.610Z,13.30
2023-03-30T01:53:35.696Z,13.30
2023-03-30T01:57:04.234Z,13.30
2023-03-30T02:00:14.722Z,13.30
2023-03-30T02:03:22.604Z,13.30
2023-03-30T02:06:38.708Z,13.20
2023-03-30T02:09:42.087Z,13.20
2023-03-30T02:12:45.676Z,13.10
2023-03-30T02:15:54.852Z,13.10
2023-03-30T02:18:57.675Z,13.00
2023-03-30T02:22:01.062Z,13.00
2023-03-30T02:25:03.102Z,12.90
2023-03-30T02:28:06.982Z,12.90
2023-03-30T02:31:15.757Z,12.90
2023-03-30T02:34:45.627Z,12.80
2023-03-30T02:38:10.935Z,12.80
2023-03-30T02:41:35.838Z,12.80
2023-03-30T02:45:04.444Z,12.80
2023-03-30T02:48:27.133Z,12.80
2023-03-30T02:51:28.678Z,12.90
2023-03-30T02:54:53.653Z,12.90
2023-03-30T02:58:19.604Z,12.90
2023-03-30T03:01:39.651Z,12.80
2023-03-30T03:04:43.528Z,12.90
2023-03-30T03:07:45.430Z,12.90
2023-03-30T03:10:47.089Z,12.90
2023-03-30T03:13:48.796Z,12.90
2023-03-30T03:16:50.444Z,12.90
2023-03-30T03:19:52.112Z,12.90
2023-03-30T03:22:53.701Z,12.90
2023-03-30T03:25:55.937Z,13.00
2023-03-30T03:28:57.599Z,13.00
2023-03-30T03:31:59.452Z,13.00
2023-03-30T03:35:01.318Z,13.00
2023-03-30T03:38:02.986Z,13.00
2023-03-30T03:41:05.478Z,13.00
2023-03-30T03:44:07.356Z,13.00
2023-03-30T03:47:09.017Z,13.00
2023-03-30T03:50:10.887Z,13.00
2023-03-30T03:53:12.925Z,13.00
2023-03-30T03:56:14.791Z,13.00
2023-03-30T03:59:16.577Z,13.00
2023-03-30T04:02:18.622Z,13.00
2023-03-30T04:05:20.217Z,13.00
2023-03-30T04:08:21.868Z,13.00
2023-03-30T04:11:23.462Z,13.00
2023-03-30T04:14:25.143Z,13.00
2023-03-30T04:17:26.768Z,13.10
2023-03-30T04:20:29.379Z,13.10
2023-03-30T04:23:36.827Z,13.10
2023-03-30T04:26:38.602Z,13.10
2023-03-30T04:29:40.770Z,13.10
2023-03-30T04:32:42.557Z,13.10
2023-03-30T04:35:44.177Z,13.10
2023-03-30T04:38:59.442Z,13.00
2023-03-30T04:42:04.072Z,13.00
2023-03-30T04:45:07.172Z,13.00
2023-03-30T04:48:08.792Z,13.00
2023-03-30T04:51:10.827Z,13.00
2023-03-30T04:54:12.463Z,13.00
2023-03-30T04:57:15.258Z,13.10
2023-03-30T05:00:17.429Z,13.10
2023-03-30T05:03:22.432Z,13.10
2023-03-30T05:06:25.644Z,13.10
2023-03-30T05:09:27.890Z,13.00
2023-03-30T05:12:29.450Z,12.90
2023-03-30T05:15:31.016Z,12.80
2023-03-30T05:18:32.649Z,12.70
2023-03-30T05:21:34.302Z,12.60
2023-03-30T05:24:35.928Z,12.60
2023-03-30T05:27:37.512Z,12.50
2023-03-30T05:30:39.068Z,12.40
2023-03-30T05:33:42.717Z,12.40
2023-03-30T05:36:45.434Z,12.40
2023-03-30T05:39:48.223Z,12.30
2023-03-30T05:42:49.800Z,12.30
2023-03-30T05:45:51.475Z,12.30
2023-03-30T05:48:53.083Z,12.20
2023-03-30T05:51:54.682Z,12.10
2023-03-30T05:54:56.784Z,12.10
2023-03-30T05:57:58.415Z,12.00
2023-03-30T06:01:00.445Z,12.10
2023-03-30T06:04:02.716Z,12.00
2023-03-30T06:07:04.497Z,12.00
2023-03-30T06:10:07.355Z,12.00
2023-03-30T06:13:08.917Z,12.00
2023-03-30T06:16:11.036Z,12.00
2023-03-30T06:19:14.393Z,12.00
2023-03-30T06:22:16.039Z,12.10
2023-03-30T06:25:20.313Z,12.10
2023-03-30T06:28:22.369Z,12.10
2023-03-30T06:31:24.198Z,12.20
2023-03-30T06:34:26.160Z,12.20
2023-03-30T06:37:28.725Z,12.30
2023-03-30T06:40:30.815Z,12.40
2023-03-30T06:43:32.408Z,12.40
2023-03-30T06:46:34.200Z,12.40
2023-03-30T06:49:35.838Z,12.40
2023-03-30T06:52:38.059Z,12.40
2023-03-30T06:55:39.809Z,12.40
2023-03-30T06:58:41.468Z,12.50
2023-03-30T07:01:43.331Z,12.40
2023-03-30T07:04:46.988Z,12.40
2023-03-30T07:07:48.728Z,12.40
2023-03-30T07:10:51.262Z,12.40
2023-03-30T07:13:56.156Z,12.40
2023-03-30T07:16:58.050Z,12.40
2023-03-30T07:19:59.631Z,12.40
2023-03-30T07:23:02.373Z,12.40
2023-03-30T07:26:04.319Z,12.40
2023-03-30T07:29:06.773Z,12.50
2023-03-30T07:32:08.574Z,12.50
2023-03-30T07:35:10.232Z,12.40
2023-03-30T07:38:13.035Z,12.40
2023-03-30T07:41:16.110Z,12.40
2023-03-30T07:44:17.681Z,12.40
2023-03-30T07:47:19.722Z,12.40
2023-03-30T07:50:21.504Z,12.50
2023-03-30T07:53:23.276Z,12.40
2023-03-30T07:56:24.842Z,12.50
2023-03-30T07:59:27.188Z,12.50
2023-03-30T08:02:28.881Z,12.60
2023-03-30T08:05:30.460Z,12.60
2023-03-30T08:08:33.388Z,12.60
2023-03-30T08:11:36.056Z,12.60
2023-03-30T08:14:37.616Z,12.60
2023-03-30T08:17:39.323Z,12.60
2023-03-30T08:20:42.492Z,12.60
2023-03-30T08:23:44.058Z,12.60
2023-03-30T08:26:45.614Z,12.70
2023-03-30T08:29:47.163Z,12.80
2023-03-30T08:32:49.102Z,13.00
2023-03-30T08:35:51.264Z,13.20
2023-03-30T08:38:54.814Z,13.30
2023-03-30T08:42:02.663Z,13.50
2023-03-30T08:45:05.329Z,13.60
2023-03-30T08:48:25.956Z,13.70
2023-03-30T08:51:33.102Z,13.80
2023-03-30T08:54:34.818Z,14.00
2023-03-30T08:57:57.701Z,14.00
2023-03-30T09:01:19.996Z,13.90
2023-03-30T09:04:42.262Z,13.80
2023-03-30T09:08:06.519Z,13.60
2023-03-30T09:11:17.658Z,13.60
2023-03-30T09:14:30.216Z,13.50
2023-03-30T09:17:46.944Z,13.50
2023-03-30T09:20:52.014Z,13.60
2023-03-30T09:23:56.120Z,13.90
2023-03-30T09:27:25.154Z,14.10
2023-03-30T09:30:39.247Z,14.10
2023-03-30T09:33:49.724Z,14.00
2023-03-30T09:37:00.785Z,13.90
2023-03-30T09:40:21.269Z,13.80
2023-03-30T09:43:43.523Z,13.80
2023-03-30T09:46:45.125Z,13.80
2023-03-30T09:49:47.154Z,13.60
2023-03-30T09:53:04.062Z,13.60
2023-03-30T09:56:17.516Z,13.50
2023-03-30T09:59:28.455Z,13.50
2023-03-30T10:02:33.936Z,13.70
2023-03-30T10:05:38.401Z,13.70
2023-03-30T10:08:52.934Z,13.80
2023-03-30T10:11:55.426Z,14.00
2023-03-30T10:15:01.158Z,14.20
2023-03-30T10:18:18.463Z,14.50
2023-03-30T10:21:28.285Z,14.70
2023-03-30T10:24:33.073Z,14.70
2023-03-30T10:27:40.349Z,14.90
2023-03-30T10:30:49.151Z,15.00
2023-03-30T10:33:56.704Z,15.20
2023-03-30T10:36:58.515Z,15.30
2023-03-30T10:40:05.445Z,15.40
2023-03-30T10:43:14.431Z,15.50
2023-03-30T10:46:20.508Z,15.60
2023-03-30T10:49:31.370Z,15.80
2023-03-30T10:53:19.794Z,15.90
2023-03-30T10:56:34.969Z,15.90
2023-03-30T10:59:57.350Z,15.80
2023-03-30T11:03:09.843Z,15.70
2023-03-30T11:06:22.956Z,15.50
2023-03-30T11:09:30.635Z,15.50
2023-03-30T11:12:40.191Z,15.60
2023-03-30T11:15:58.453Z,15.70
2023-03-30T11:19:05.980Z,15.70
2023-03-30T11:22:33.441Z,15.70
2023-03-30T11:26:08.385Z,15.60
2023-03-30T11:29:36.794Z,15.40
2023-03-30T11:32:49.163Z,15.20
2023-03-30T11:36:00.444Z,15.40
2023-03-30T11:39:04.671Z,15.90
2023-03-30T11:42:15.420Z,16.30
2023-03-30T11:45:49.429Z,16.50
2023-03-30T11:49:13.467Z,16.80
2023-03-30T11:52:53.236Z,17.10
2023-03-30T11:56:12.857Z,17.30
2023-03-30T11:59:43.965Z,17.50
2023-03-30T12:03:35.487Z,17.60
2023-03-30T12:06:45.255Z,17.60
2023-03-30T12:10:00.863Z,17.60
2023-03-30T12:13:04.526Z,17.70
2023-03-30T12:16:19.181Z,17.80
2023-03-30T12:19:56.696Z,17.80
2023-03-30T12:23:16.236Z,17.80
2023-03-30T12:26:27.400Z,17.80
2023-03-30T12:30:14.920Z,17.50
2023-03-30T12:33:28.064Z,17.60
2023-03-30T12:36:38.708Z,17.80
2023-03-30T12:39:54.299Z,18.10
2023-03-30T12:43:11.387Z,18.30
2023-03-30T12:46:28.128Z,18.70
2023-03-30T12:49:48.561Z,19.10
2023-03-30T12:53:11.942Z,19.40
2023-03-30T12:56:19.370Z,19.20
2023-03-30T12:59:39.654Z,19.00
2023-03-30T13:03:00.040Z,18.90
2023-03-30T13:06:04.154Z,18.50
2023-03-30T13:09:08.624Z,18.00
2023-03-30T13:12:31.168Z,17.50
2023-03-30T13:15:41.507Z,17.20
2023-03-30T13:18:55.040Z,17.00
2023-03-30T13:22:11.726Z,16.90
2023-03-30T13:25:36.343Z,16.90
2023-03-30T13:29:11.173Z,16.90
2023-03-30T13:32:31.733Z,17.10
2023-03-30T13:35:46.838Z,17.30
2023-03-30T13:39:22.627Z,17.50
2023-03-30T13:42:42.327Z,17.60
2023-03-30T13:45:49.801Z,17.90
2023-03-30T13:49:06.433Z,18.20
2023-03-30T13:52:15.980Z,18.10
2023-03-30T13:55:31.270Z,18.20
2023-03-30T13:58:35.759Z,18.10
2023-03-30T14:01:39.505Z,17.90
2023-03-30T14:04:41.690Z,17.60
2023-03-30T14:07:47.086Z,17.40
2023-03-30T14:10:51.176Z,17.80
2023-03-30T14:13:53.649Z,18.40
2023-03-30T14:16:57.786Z,18.30
2023-03-30T14:20:17.290Z,18.30
2023-03-30T14:23:36.060Z,18.20
2023-03-30T14:26:40.973Z,18.00
2023-03-30T14:29:47.798Z,17.80
2023-03-30T14:33:06.439Z,17.40
2023-03-30T14:36:11.666Z,16.60
2023-03-30T14:39:13.759Z,16.30
2023-03-30T14:42:21.531Z,16.00
2023-03-30T14:45:23.573Z,15.90
2023-03-30T14:48:33.370Z,16.20
2023-03-30T14:51:47.543Z,16.90
2023-03-30T14:55:05.087Z,17.40
2023-03-30T14:58:14.137Z,17.70
2023-03-30T15:01:23.622Z,17.70
2023-03-30T15:04:32.514Z,17.50
2023-03-30T15:07:34.510Z,17.10
2023-03-30T15:10:44.349Z,16.60
2023-03-30T15:13:55.094Z,16.40
2023-03-30T15:16:57.268Z,16.30
2023-03-30T15:20:01.156Z,16.20
2023-03-30T15:23:03.226Z,16.30
2023-03-30T15:26:06.647Z,16.50
2023-03-30T15:29:10.399Z,16.70
2023-03-30T15:32:22.169Z,16.90
2023-03-30T15:35:30.748Z,17.00
2023-03-30T15:38:36.166Z,16.90
2023-03-30T15:41:48.655Z,16.50
2023-03-30T15:45:07.264Z,16.20
2023-03-30T15:48:11.492Z,15.80
2023-03-30T15:51:29.265Z,15.60
2023-03-30T15:54:37.515Z,15.30
2023-03-30T15:57:43.362Z,15.20
2023-03-30T16:00:45.144Z,15.00
2023-03-30T16:03:55.069Z,14.50
2023-03-30T16:06:56.653Z,14.10
2023-03-30T16:09:58.642Z,13.90
2023-03-30T16:13:01.268Z,13.60
2023-03-30T16:16:03.602Z,13.30
2023-03-30T16:19:13.528Z,13.20
2023-03-30T16:22:15.896Z,13.20
2023-03-30T16:25:31.256Z,13.30
2023-03-30T16:28:46.217Z,13.60
2023-03-30T16:31:49.341Z,14.00
2023-03-30T16:34:53.506Z,14.40
2023-03-30T16:37:55.259Z,14.70
2023-03-30T16:40:59.837Z,15.20
2023-03-30T16:44:01.385Z,15.30
2023-03-30T16:47:03.040Z,15.10
2023-03-30T16:50:22.219Z,15.70
2023-03-30T16:53:23.992Z,16.10
2023-03-30T16:56:26.030Z,16.40
2023-03-30T16:59:30.121Z,16.00
2023-03-30T17:02:31.764Z,15.90
2023-03-30T17:05:33.535Z,15.80
2023-03-30T17:08:35.241Z,16.40
2023-03-30T17:11:36.990Z,17.10
2023-03-30T17:14:42.944Z,17.50
2023-03-30T17:17:44.934Z,17.70
2023-03-30T17:20:48.984Z,17.10
2023-03-30T17:23:50.813Z,16.30
2023-03-30T17:26:52.441Z,15.50
2023-03-30T17:29:53.992Z,14.90
2023-03-30T17:32:57.066Z,14.50
2023-03-30T17:36:02.248Z,14.20
2023-03-30T17:39:07.207Z,13.90
2023-03-30T17:42:08.782Z,13.80
2023-03-30T17:45:11.980Z,13.60
2023-03-30T17:48:17.332Z,13.40
2023-03-30T17:51:18.968Z,13.20
2023-03-30T17:54:20.776Z,13.10
2023-03-30T17:57:22.742Z,13.00
2023-03-30T18:00:25.752Z,12.90
2023-03-30T18:03:29.452Z,12.90
2023-03-30T18:06:32.394Z,12.80
2023-03-30T18:09:34.240Z,12.70
2023-03-30T18:12:35.838Z,12.60
2023-03-30T18:15:37.782Z,12.50
2023-03-30T18:18:39.482Z,12.40
2023-03-30T18:21:41.411Z,12.30
2023-03-30T18:24:43.469Z,12.20
2023-03-30T18:27:46.480Z,12.20
2023-03-30T18:30:48.569Z,12.10
2023-03-30T18:33:52.462Z,12.10
2023-03-30T18:36:54.838Z,12.20
2023-03-30T18:39:56.386Z,12.20
2023-03-30T18:42:58.274Z,12.20
2023-03-30T18:46:02.507Z,12.20
2023-03-30T18:49:04.279Z,12.20
2023-03-30T18:52:05.898Z,12.30
2023-03-30T18:55:08.059Z,12.30
2023-03-30T18:58:24.194Z,12.30
2023-03-30T19:01:25.875Z,12.30
2023-03-30T19:04:29.247Z,12.30
2023-03-30T19:07:31.341Z,12.40
2023-03-30T19:10:37.283Z,12.40
2023-03-30T19:13:38.880Z,12.30
2023-03-30T19:16:41.507Z,12.30
2023-03-30T19:19:43.185Z,12.30
2023-03-30T19:22:44.793Z,12.20
2023-03-30T19:25:46.423Z,12.20
2023-03-30T19:28:48.061Z,12.20
2023-03-30T19:31:52.603Z,12.10
2023-03-30T19:34:56.059Z,12.10
2023-03-30T19:37:57.708Z,12.10
2023-03-30T19:41:00.988Z,12.00
2023-03-30T19:44:02.593Z,12.00
2023-03-30T19:47:04.818Z,11.90
2023-03-30T19:50:10.273Z,11.80
2023-03-30T19:53:11.817Z,11.70
2023-03-30T19:56:13.665Z,11.70
2023-03-30T19:59:15.336Z,11.60
2023-03-30T20:02:17.214Z,11.50
2023-03-30T20:05:20.890Z,11.50
2023-03-30T20:08:24.740Z,11.40
2023-03-30T20:11:27.385Z,11.40
2023-03-30T20:14:28.955Z,11.40
2023-03-30T20:17:31.295Z,11.40
2023-03-30T20:20:34.547Z,11.40
2023-03-30T20:23:36.272Z,11.40
2023-03-30T20:26:37.824Z,11.40
2023-03-30T20:29:39.435Z,11.40
2023-03-30T20:32:41.038Z,11.40
2023-03-30T20:35:43.024Z,11.40
2023-03-30T20:38:45.841Z,11.40
2023-03-30T20:41:47.792Z,11.40
2023-03-30T20:44:50.008Z,11.40
2023-03-30T20:47:53.756Z,11.40
2023-03-30T20:50:55.881Z,11.40
2023-03-30T20:53:57.908Z,11.40
2023-03-30T20:56:59.486Z,11.40
2023-03-30T21:00:01.420Z,11.40
2023-03-30T21:03:03.051Z,11.30
2023-03-30T21:06:08.749Z,11.30
2023-03-30T21:09:10.618Z,11.20
2023-03-30T21:12:12.309Z,11.20
2023-03-30T21:15:14.997Z,11.20
2023-03-30T21:18:16.553Z,11.20
2023-03-30T21:21:18.662Z,11.20
2023-03-30T21:24:20.406Z,11.30
2023-03-30T21:27:22.035Z,11.30
2023-03-30T21:30:23.603Z,11.30
2023-03-30T21:33:26.917Z,11.20
2023-03-30T21:36:28.541Z,11.30
2023-03-30T21:39:30.129Z,11.30
2023-03-30T21:42:34.272Z,11.30
2023-03-30T21:45:35.844Z,11.30
2023-03-30T21:48:39.123Z,11.30
2023-03-30T21:51:40.801Z,11.30
2023-03-30T21:54:42.468Z,11.30
2023-03-30T21:57:44.058Z,11.30
2023-03-30T22:00:46.945Z,11.20
2023-03-30T22:03:48.659Z,11.20
2023-03-30T22:06:50.328Z,11.20
2023-03-30T22:09:52.174Z,11.20
2023-03-30T22:12:53.771Z,11.20
2023-03-30T22:15:59.949Z,11.20
2023-03-30T22:19:02.527Z,11.10
2023-03-30T22:22:04.711Z,11.20
2023-03-30T22:25:06.808Z,11.20
2023-03-30T22:28:08.742Z,11.20
2023-03-30T22:31:12.857Z,11.20
2023-03-30T22:34:14.525Z,11.20
2023-03-30T22:37:16.079Z,11.20
2023-03-30T22:40:17.721Z,11.30
2023-03-30T22:43:19.296Z,11.20
2023-03-30T22:46:22.806Z,11.20
2023-03-30T22:49:27.196Z,11.20
2023-03-30T22:52:30.091Z,11.20
2023-03-30T22:55:31.694Z,11.10
2023-03-30T22:58:34.449Z,11.10
2023-03-30T23:01:37.296Z,11.10
2023-03-30T23:04:39.867Z,11.00
2023-03-30T23:07:43.936Z,11.00
2023-03-30T23:10:45.878Z,10.90
2023-03-30T23:13:48.460Z,10.80
2023-03-30T23:16:51.907Z,10.80
2023-03-30T23:19:54.181Z,10.80
2023-03-30T23:22:56.013Z,10.80
2023-03-30T23:25:58.237Z,10.80
2023-03-30T23:28:59.875Z,10.80
2023-03-30T23:32:01.436Z,10.80
2023-03-30T23:35:03.482Z,10.80
2023-03-30T23:38:05.050Z,10.80
2023-03-30T23:41:06.632Z,10.80
2023-03-30T23:44:08.306Z,10.80
2023-03-30T23:47:10.320Z,10.80
2023-03-30T23:50:12.114Z,10.80
2023-03-30T23:53:13.893Z,10.80
2023-03-30T23:56:16.965Z,10.70
2023-03-30T23:59:18.845Z,10.70
